El Jebel, CO

11:52 AM MST on January 20, 2017 (GMT -0700)
Spring Park Reservoir | | Change Station
Active Advisory: Winter Weather Advisory

Elev 7549 ft 39.44 °N, 107.09 °W | Updated 7 seconds ago

Overcast
Overcast
27.9 °F
Feels Like 28 °F
N
1.0
Wind Variable Wind from West
Gusts 8.0 mph

Today
High -- | Low -- °F
--% Chance of Precip.
Yesterday
High -- | Low -- °F
Precip. -- in
Pressure 29.53 in
Visibility 10.0 miles
Clouds Scattered Clouds 1300 ft
Mostly Cloudy 4000 ft
Windchill 28 °F
Dew Point 24 °F
Humidity 85%
Rainfall 0.00 in
Snow Depth Not available.
7:24 AM 5:15 PM
Last Quarter, 42% visible
SPECI KASE 201814Z 01005KT 10SM SCT013 BKN040 M02/M04 A2953 RMK AO2 T10171039
Pressure 29.53 in
Visibility 10.0 miles
Clouds Scattered Clouds 1300 ft
Mostly Cloudy 4000 ft
Windchill 28 °F
Dew Point 24 °F
Humidity 85%
Rainfall 0.00 in
Snow Depth Not available.
7:24 AM 5:15 PM
Last Quarter, 42% visible
SPECI KASE 201814Z 01005KT 10SM SCT013 BKN040 M02/M04 A2953 RMK AO2 T10171039

Get Your Daily Forecast Email!

Thanks for signing up!

Be on the lookout for a verification email in your inbox.

You'll start receiving the daily forecast at 8 AM.

×

10-Day Weather Forecast

Almanac

Astronomy

Jan. 20, 2017 Rise Set
Actual Time
Civil Twilight
Nautical Twilight
Astronomical Twilight
Moon
Length of Visible Light
Length of Day
Tomorrow will be .
, % of the Moon is Illuminated

Today's Extremes

State Highs State Lows

Community

WunderPhotos

Upload Photos

1,962,540 photos uploaded!

WunderBlog® & News

Nearby

Air Quality

  Air Quality AQ Index Pollutant
Not available.

Snow Depth

Station Depth Elevation

Earthquake Activity

City Distance Mag. Time & Date
Minimum magnitude displayed is 2.5.

Coastal Water Temperatures

Place Temperature

Stations

Nearby Weather Stations

Station Location Temp. Windchill Dew Point Humidity Wind Precip. Elev Updated Type
                   

Watches & Warnings

Winter Weather Advisory
Issued: 7:02 AM MST Jan. 20, 2017 – National Weather Service

... Winter Weather Advisory remains in effect until midnight MST
Saturday night...

* locations include the cities of... Eagle... Edwards... Glenwood
Springs... Carbondale.

* Timing... occasional snow showers will continue through Saturday
evening. Expected breaks in the snow showers this afternoon and
evening with snow picking up late tonight.

* Snow accumulation... 3 to 6 inches with locally higher amounts
in the upper valleys.

* Winds... southwest 10 to 20 mph with gusts up to 35 mph.

* Impacts... roadways will become slushy and/or snow packed
overnight with winter driving conditions continuing through
the weekend. Visibilities will be reduced to under a half mile
at times.

Precautionary/preparedness actions...

A Winter Weather Advisory means that periods of snow and/or
blowing snow will cause travel difficulties. Be prepared for
slippery roads and limited visibilities... and use caution while
driving.